sensor_id;sensor_type;location;lat;lon;timestamp;P1;durP1;ratioP1;P2;durP2;ratioP2
21786;SDS011;11055;50.870;4.316;2023-03-01T00:01:52;10.85;;;7.57;;
21786;SDS011;11055;50.870;4.316;2023-03-01T00:04:18;8.10;;;7.25;;
21786;SDS011;11055;50.870;4.316;2023-03-01T00:06:44;10.10;;;7.85;;
21786;SDS011;11055;50.870;4.316;2023-03-01T00:09:11;8.70;;;7.60;;
21786;SDS011;11055;50.870;4.316;2023-03-01T00:11:37;10.30;;;7.75;;
21786;SDS011;11055;50.870;4.316;2023-03-01T00:14:03;10.10;;;7.85;;
21786;SDS011;11055;50.870;4.316;2023-03-01T00:16:31;9.73;;;8.13;;
21786;SDS011;11055;50.870;4.316;2023-03-01T00:19:00;12.05;;;8.50;;
21786;SDS011;11055;50.870;4.316;2023-03-01T00:21:26;10.18;;;7.57;;
21786;SDS011;11055;50.870;4.316;2023-03-01T00:23:52;9.00;;;7.85;;
21786;SDS011;11055;50.870;4.316;2023-03-01T00:26:20;11.65;;;8.00;;
21786;SDS011;11055;50.870;4.316;2023-03-01T00:28:47;12.65;;;8.27;;
21786;SDS011;11055;50.870;4.316;2023-03-01T00:31:14;8.70;;;7.53;;
21786;SDS011;11055;50.870;4.316;2023-03-01T00:33:45;8.75;;;7.40;;
21786;SDS011;11055;50.870;4.316;2023-03-01T00:36:11;10.38;;;7.28;;
21786;SDS011;11055;50.870;4.316;2023-03-01T00:38:39;12.20;;;7.68;;
21786;SDS011;11055;50.870;4.316;2023-03-01T00:41:07;9.30;;;7.20;;
21786;SDS011;11055;50.870;4.316;2023-03-01T00:43:34;9.45;;;7.30;;
21786;SDS011;11055;50.870;4.316;2023-03-01T00:46:04;8.60;;;7.07;;
21786;SDS011;11055;50.870;4.316;2023-03-01T00:48:31;9.95;;;7.45;;
21786;SDS011;11055;50.870;4.316;2023-03-01T00:51:03;10.15;;;7.47;;
21786;SDS011;11055;50.870;4.316;2023-03-01T00:53:34;12.32;;;7.40;;
21786;SDS011;11055;50.870;4.316;2023-03-01T00:56:00;10.45;;;7.25;;
21786;SDS011;11055;50.870;4.316;2023-03-01T00:58:26;9.77;;;7.60;;
21786;SDS011;11055;50.870;4.316;2023-03-01T01:00:52;10.63;;;7.35;;
21786;SDS011;11055;50.870;4.316;2023-03-01T01:03:18;8.20;;;6.97;;
21786;SDS011;11055;50.870;4.316;2023-03-01T01:05:44;9.13;;;7.75;;
21786;SDS011;11055;50.870;4.316;2023-03-01T01:08:10;10.38;;;6.97;;
21786;SDS011;11055;50.870;4.316;2023-03-01T01:10:36;8.50;;;7.15;;
21786;SDS011;11055;50.870;4.316;2023-03-01T01:13:01;9.80;;;7.90;;
21786;SDS011;11055;50.870;4.316;2023-03-01T01:15:27;8.27;;;7.30;;
21786;SDS011;11055;50.870;4.316;2023-03-01T01:17:53;8.57;;;7.40;;
21786;SDS011;11055;50.870;4.316;2023-03-01T01:20:19;9.05;;;7.57;;
21786;SDS011;11055;50.870;4.316;2023-03-01T01:22:45;9.25;;;7.28;;
21786;SDS011;11055;50.870;4.316;2023-03-01T01:25:11;9.18;;;7.35;;
21786;SDS011;11055;50.870;4.316;2023-03-01T01:27:37;9.18;;;7.68;;
21786;SDS011;11055;50.870;4.316;2023-03-01T01:30:02;8.73;;;7.00;;
21786;SDS011;11055;50.870;4.316;2023-03-01T01:32:29;10.27;;;7.07;;
21786;SDS011;11055;50.870;4.316;2023-03-01T01:34:55;8.35;;;7.30;;
21786;SDS011;11055;50.870;4.316;2023-03-01T01:37:21;10.48;;;6.75;;
21786;SDS011;11055;50.870;4.316;2023-03-01T01:39:46;10.30;;;6.82;;
21786;SDS011;11055;50.870;4.316;2023-03-01T01:42:14;10.98;;;6.88;;
21786;SDS011;11055;50.870;4.316;2023-03-01T01:44:42;9.70;;;7.40;;
21786;SDS011;11055;50.870;4.316;2023-03-01T01:47:12;9.38;;;7.55;;
21786;SDS011;11055;50.870;4.316;2023-03-01T01:49:56;9.40;;;7.50;;
21786;SDS011;11055;50.870;4.316;2023-03-01T01:52:26;8.35;;;7.13;;
21786;SDS011;11055;50.870;4.316;2023-03-01T01:54:57;10.68;;;7.72;;
21786;SDS011;11055;50.870;4.316;2023-03-01T01:57:37;9.10;;;7.53;;
21786;SDS011;11055;50.870;4.316;2023-03-01T02:00:11;10.00;;;7.15;;
21786;SDS011;11055;50.870;4.316;2023-03-01T02:02:45;9.40;;;7.63;;
21786;SDS011;11055;50.870;4.316;2023-03-01T02:07:58;9.90;;;7.18;;
21786;SDS011;11055;50.870;4.316;2023-03-01T02:10:24;7.93;;;7.13;;
21786;SDS011;11055;50.870;4.316;2023-03-01T02:12:51;9.35;;;7.40;;
21786;SDS011;11055;50.870;4.316;2023-03-01T02:15:18;8.40;;;6.97;;
21786;SDS011;11055;50.870;4.316;2023-03-01T02:17:44;10.30;;;7.65;;
21786;SDS011;11055;50.870;4.316;2023-03-01T02:22:50;9.00;;;7.32;;
21786;SDS011;11055;50.870;4.316;2023-03-01T02:30:41;10.48;;;7.03;;
21786;SDS011;11055;50.870;4.316;2023-03-01T02:33:28;9.02;;;7.10;;
21786;SDS011;11055;50.870;4.316;2023-03-01T02:35:57;7.80;;;6.97;;
21786;SDS011;11055;50.870;4.316;2023-03-01T02:38:25;8.55;;;7.32;;
21786;SDS011;11055;50.870;4.316;2023-03-01T02:40:51;8.30;;;7.22;;
21786;SDS011;11055;50.870;4.316;2023-03-01T02:43:19;8.73;;;7.22;;
21786;SDS011;11055;50.870;4.316;2023-03-01T02:45:52;8.45;;;7.32;;
21786;SDS011;11055;50.870;4.316;2023-03-01T02:48:22;9.82;;;7.55;;
21786;SDS011;11055;50.870;4.316;2023-03-01T02:56:11;10.52;;;8.02;;
21786;SDS011;11055;50.870;4.316;2023-03-01T02:58:39;12.07;;;7.78;;
21786;SDS011;11055;50.870;4.316;2023-03-01T03:01:10;7.82;;;7.03;;
21786;SDS011;11055;50.870;4.316;2023-03-01T03:03:36;12.70;;;8.45;;
21786;SDS011;11055;50.870;4.316;2023-03-01T03:06:02;10.80;;;7.68;;
21786;SDS011;11055;50.870;4.316;2023-03-01T03:08:27;8.88;;;7.00;;
21786;SDS011;11055;50.870;4.316;2023-03-01T03:10:53;11.25;;;8.10;;
21786;SDS011;11055;50.870;4.316;2023-03-01T03:13:19;9.55;;;8.13;;
21786;SDS011;11055;50.870;4.316;2023-03-01T03:15:44;9.23;;;7.07;;
21786;SDS011;11055;50.870;4.316;2023-03-01T03:18:11;7.93;;;7.13;;
21786;SDS011;11055;50.870;4.316;2023-03-01T03:20:38;9.88;;;7.80;;
21786;SDS011;11055;50.870;4.316;2023-03-01T03:23:06;10.00;;;7.85;;
21786;SDS011;11055;50.870;4.316;2023-03-01T03:25:31;11.40;;;7.75;;
21786;SDS011;11055;50.870;4.316;2023-03-01T03:27:57;9.82;;;8.05;;
21786;SDS011;11055;50.870;4.316;2023-03-01T03:30:27;8.85;;;7.45;;
21786;SDS011;11055;50.870;4.316;2023-03-01T03:32:55;10.40;;;7.80;;
21786;SDS011;11055;50.870;4.316;2023-03-01T03:35:25;13.30;;;8.38;;
21786;SDS011;11055;50.870;4.316;2023-03-01T03:37:55;9.90;;;7.97;;
21786;SDS011;11055;50.870;4.316;2023-03-01T03:40:28;10.25;;;7.47;;
21786;SDS011;11055;50.870;4.316;2023-03-01T03:42:55;9.80;;;8.00;;
21786;SDS011;11055;50.870;4.316;2023-03-01T03:45:21;10.95;;;8.57;;
21786;SDS011;11055;50.870;4.316;2023-03-01T03:47:47;9.68;;;8.15;;
21786;SDS011;11055;50.870;4.316;2023-03-01T03:50:13;10.38;;;8.68;;
21786;SDS011;11055;50.870;4.316;2023-03-01T03:52:40;11.02;;;8.52;;
21786;SDS011;11055;50.870;4.316;2023-03-01T03:55:07;9.98;;;8.57;;
21786;SDS011;11055;50.870;4.316;2023-03-01T03:57:34;10.13;;;8.80;;
21786;SDS011;11055;50.870;4.316;2023-03-01T04:00:01;9.50;;;8.45;;
21786;SDS011;11055;50.870;4.316;2023-03-01T04:02:29;10.77;;;9.68;;
21786;SDS011;11055;50.870;4.316;2023-03-01T04:04:55;11.00;;;8.50;;
21786;SDS011;11055;50.870;4.316;2023-03-01T04:07:20;10.85;;;8.82;;
21786;SDS011;11055;50.870;4.316;2023-03-01T04:09:46;9.82;;;8.57;;
21786;SDS011;11055;50.870;4.316;2023-03-01T04:12:12;12.15;;;8.75;;
21786;SDS011;11055;50.870;4.316;2023-03-01T04:14:38;11.50;;;8.77;;
21786;SDS011;11055;50.870;4.316;2023-03-01T04:17:03;9.82;;;7.95;;
21786;SDS011;11055;50.870;4.316;2023-03-01T04:19:30;10.63;;;8.40;;
21786;SDS011;11055;50.870;4.316;2023-03-01T04:22:01;12.05;;;8.65;;
21786;SDS011;11055;50.870;4.316;2023-03-01T04:24:34;9.63;;;8.15;;
21786;SDS011;11055;50.870;4.316;2023-03-01T04:27:00;10.45;;;8.85;;
21786;SDS011;11055;50.870;4.316;2023-03-01T04:29:26;9.75;;;8.45;;
21786;SDS011;11055;50.870;4.316;2023-03-01T04:31:52;9.85;;;8.20;;
21786;SDS011;11055;50.870;4.316;2023-03-01T04:34:18;12.77;;;8.63;;
21786;SDS011;11055;50.870;4.316;2023-03-01T04:36:43;9.57;;;8.30;;
21786;SDS011;11055;50.870;4.316;2023-03-01T04:39:09;13.90;;;9.40;;
21786;SDS011;11055;50.870;4.316;2023-03-01T04:41:38;11.80;;;8.70;;
21786;SDS011;11055;50.870;4.316;2023-03-01T04:44:05;11.27;;;8.10;;
21786;SDS011;11055;50.870;4.316;2023-03-01T04:46:31;12.20;;;7.70;;
21786;SDS011;11055;50.870;4.316;2023-03-01T04:48:57;9.90;;;7.90;;
21786;SDS011;11055;50.870;4.316;2023-03-01T04:51:23;10.18;;;7.88;;
21786;SDS011;11055;50.870;4.316;2023-03-01T04:53:48;12.10;;;8.70;;
21786;SDS011;11055;50.870;4.316;2023-03-01T04:56:15;10.73;;;8.10;;
21786;SDS011;11055;50.870;4.316;2023-03-01T04:58:42;11.07;;;8.10;;
21786;SDS011;11055;50.870;4.316;2023-03-01T05:01:13;10.48;;;8.15;;
21786;SDS011;11055;50.870;4.316;2023-03-01T05:03:44;10.90;;;8.10;;
21786;SDS011;11055;50.870;4.316;2023-03-01T05:06:11;11.02;;;7.47;;
21786;SDS011;11055;50.870;4.316;2023-03-01T05:08:38;12.02;;;8.30;;
21786;SDS011;11055;50.870;4.316;2023-03-01T05:11:04;11.38;;;8.30;;
21786;SDS011;11055;50.870;4.316;2023-03-01T05:13:30;11.73;;;8.18;;
21786;SDS011;11055;50.870;4.316;2023-03-01T05:15:57;15.43;;;8.35;;
21786;SDS011;11055;50.870;4.316;2023-03-01T05:18:25;12.10;;;7.93;;
21786;SDS011;11055;50.870;4.316;2023-03-01T05:20:53;10.13;;;8.25;;
21786;SDS011;11055;50.870;4.316;2023-03-01T05:23:21;9.23;;;7.68;;
21786;SDS011;11055;50.870;4.316;2023-03-01T05:25:47;9.85;;;8.07;;
21786;SDS011;11055;50.870;4.316;2023-03-01T05:28:14;9.90;;;8.20;;
21786;SDS011;11055;50.870;4.316;2023-03-01T05:30:40;11.20;;;8.13;;
21786;SDS011;11055;50.870;4.316;2023-03-01T05:33:06;11.25;;;8.07;;
21786;SDS011;11055;50.870;4.316;2023-03-01T05:35:38;10.93;;;7.90;;
21786;SDS011;11055;50.870;4.316;2023-03-01T05:38:08;9.68;;;7.55;;
21786;SDS011;11055;50.870;4.316;2023-03-01T05:40:38;10.55;;;8.10;;
21786;SDS011;11055;50.870;4.316;2023-03-01T05:43:04;9.18;;;7.95;;
21786;SDS011;11055;50.870;4.316;2023-03-01T05:45:30;12.88;;;8.45;;
21786;SDS011;11055;50.870;4.316;2023-03-01T05:47:57;10.75;;;8.02;;
21786;SDS011;11055;50.870;4.316;2023-03-01T05:50:27;9.00;;;7.80;;
21786;SDS011;11055;50.870;4.316;2023-03-01T05:55:31;9.23;;;7.80;;
21786;SDS011;11055;50.870;4.316;2023-03-01T05:57:58;10.02;;;7.97;;
21786;SDS011;11055;50.870;4.316;2023-03-01T06:00:26;10.05;;;7.95;;
21786;SDS011;11055;50.870;4.316;2023-03-01T06:02:56;13.55;;;8.35;;
21786;SDS011;11055;50.870;4.316;2023-03-01T06:05:23;13.75;;;8.85;;
21786;SDS011;11055;50.870;4.316;2023-03-01T06:07:49;11.90;;;8.07;;
21786;SDS011;11055;50.870;4.316;2023-03-01T06:10:15;10.38;;;8.57;;
21786;SDS011;11055;50.870;4.316;2023-03-01T06:12:41;12.43;;;8.15;;
21786;SDS011;11055;50.870;4.316;2023-03-01T06:15:09;13.90;;;8.75;;
21786;SDS011;11055;50.870;4.316;2023-03-01T06:17:36;9.85;;;7.97;;
21786;SDS011;11055;50.870;4.316;2023-03-01T06:20:06;11.02;;;8.63;;
21786;SDS011;11055;50.870;4.316;2023-03-01T06:22:36;10.65;;;8.65;;
21786;SDS011;11055;50.870;4.316;2023-03-01T06:25:02;11.02;;;8.50;;
21786;SDS011;11055;50.870;4.316;2023-03-01T06:27:28;11.32;;;8.60;;
21786;SDS011;11055;50.870;4.316;2023-03-01T06:29:54;10.60;;;8.45;;
21786;SDS011;11055;50.870;4.316;2023-03-01T06:32:19;13.15;;;8.30;;
21786;SDS011;11055;50.870;4.316;2023-03-01T06:34:45;10.60;;;8.57;;
21786;SDS011;11055;50.870;4.316;2023-03-01T06:37:11;13.35;;;8.85;;
21786;SDS011;11055;50.870;4.316;2023-03-01T06:39:36;14.57;;;8.73;;
21786;SDS011;11055;50.870;4.316;2023-03-01T06:42:02;13.25;;;9.05;;
21786;SDS011;11055;50.870;4.316;2023-03-01T06:44:29;11.68;;;8.45;;
21786;SDS011;11055;50.870;4.316;2023-03-01T06:46:54;10.40;;;8.55;;
21786;SDS011;11055;50.870;4.316;2023-03-01T06:49:20;16.48;;;9.50;;
21786;SDS011;11055;50.870;4.316;2023-03-01T06:51:46;11.80;;;9.73;;
21786;SDS011;11055;50.870;4.316;2023-03-01T06:54:11;12.07;;;9.38;;
21786;SDS011;11055;50.870;4.316;2023-03-01T06:56:38;14.07;;;9.35;;
21786;SDS011;11055;50.870;4.316;2023-03-01T06:59:03;15.68;;;8.73;;
21786;SDS011;11055;50.870;4.316;2023-03-01T07:01:29;13.70;;;9.00;;
21786;SDS011;11055;50.870;4.316;2023-03-01T07:03:55;16.08;;;8.52;;
21786;SDS011;11055;50.870;4.316;2023-03-01T07:06:22;15.40;;;9.20;;
21786;SDS011;11055;50.870;4.316;2023-03-01T07:08:48;11.50;;;7.93;;
21786;SDS011;11055;50.870;4.316;2023-03-01T07:11:14;14.23;;;8.63;;
21786;SDS011;11055;50.870;4.316;2023-03-01T07:13:40;13.05;;;8.65;;
21786;SDS011;11055;50.870;4.316;2023-03-01T07:16:06;13.38;;;8.95;;
21786;SDS011;11055;50.870;4.316;2023-03-01T07:18:33;12.10;;;8.60;;
21786;SDS011;11055;50.870;4.316;2023-03-01T07:21:03;14.32;;;8.98;;
21786;SDS011;11055;50.870;4.316;2023-03-01T07:23:29;11.90;;;8.05;;
21786;SDS011;11055;50.870;4.316;2023-03-01T07:25:55;13.18;;;8.57;;
21786;SDS011;11055;50.870;4.316;2023-03-01T07:28:22;11.90;;;9.02;;
21786;SDS011;11055;50.870;4.316;2023-03-01T07:30:48;13.40;;;8.80;;
21786;SDS011;11055;50.870;4.316;2023-03-01T07:33:14;16.52;;;9.70;;
21786;SDS011;11055;50.870;4.316;2023-03-01T07:35:40;15.18;;;9.43;;
21786;SDS011;11055;50.870;4.316;2023-03-01T07:38:05;14.15;;;8.80;;
21786;SDS011;11055;50.870;4.316;2023-03-01T07:40:31;14.52;;;9.07;;
21786;SDS011;11055;50.870;4.316;2023-03-01T07:42:57;13.38;;;9.00;;
21786;SDS011;11055;50.870;4.316;2023-03-01T07:45:23;15.50;;;9.43;;
21786;SDS011;11055;50.870;4.316;2023-03-01T07:47:50;10.63;;;8.50;;
21786;SDS011;11055;50.870;4.316;2023-03-01T07:50:17;13.57;;;8.95;;
21786;SDS011;11055;50.870;4.316;2023-03-01T07:52:46;14.10;;;9.35;;
21786;SDS011;11055;50.870;4.316;2023-03-01T07:55:13;13.93;;;10.38;;
21786;SDS011;11055;50.870;4.316;2023-03-01T07:57:39;14.15;;;9.68;;
21786;SDS011;11055;50.870;4.316;2023-03-01T08:00:05;13.55;;;10.07;;
21786;SDS011;11055;50.870;4.316;2023-03-01T08:02:32;12.38;;;9.00;;
21786;SDS011;11055;50.870;4.316;2023-03-01T08:04:58;15.88;;;9.38;;
21786;SDS011;11055;50.870;4.316;2023-03-01T08:07:23;12.20;;;9.13;;
21786;SDS011;11055;50.870;4.316;2023-03-01T08:09:49;14.07;;;9.98;;
21786;SDS011;11055;50.870;4.316;2023-03-01T08:12:15;14.52;;;9.20;;
21786;SDS011;11055;50.870;4.316;2023-03-01T08:14:41;14.70;;;10.07;;
21786;SDS011;11055;50.870;4.316;2023-03-01T08:17:07;12.55;;;9.57;;
21786;SDS011;11055;50.870;4.316;2023-03-01T08:19:33;15.35;;;9.75;;
21786;SDS011;11055;50.870;4.316;2023-03-01T08:22:00;11.93;;;9.63;;
21786;SDS011;11055;50.870;4.316;2023-03-01T08:24:27;16.85;;;9.90;;
21786;SDS011;11055;50.870;4.316;2023-03-01T08:26:53;14.48;;;9.68;;
21786;SDS011;11055;50.870;4.316;2023-03-01T08:29:19;11.98;;;8.93;;
21786;SDS011;11055;50.870;4.316;2023-03-01T08:31:45;12.93;;;9.27;;
21786;SDS011;11055;50.870;4.316;2023-03-01T08:34:12;15.55;;;9.95;;
21786;SDS011;11055;50.870;4.316;2023-03-01T08:36:40;12.60;;;9.60;;
21786;SDS011;11055;50.870;4.316;2023-03-01T08:39:08;15.32;;;10.25;;
21786;SDS011;11055;50.870;4.316;2023-03-01T08:41:35;14.32;;;9.55;;
21786;SDS011;11055;50.870;4.316;2023-03-01T08:44:01;15.02;;;9.18;;
21786;SDS011;11055;50.870;4.316;2023-03-01T08:46:27;13.30;;;10.10;;
21786;SDS011;11055;50.870;4.316;2023-03-01T08:48:54;21.55;;;14.95;;
21786;SDS011;11055;50.870;4.316;2023-03-01T08:51:20;11.50;;;9.35;;
21786;SDS011;11055;50.870;4.316;2023-03-01T08:53:47;13.32;;;9.35;;
21786;SDS011;11055;50.870;4.316;2023-03-01T08:56:14;12.98;;;9.35;;
21786;SDS011;11055;50.870;4.316;2023-03-01T08:58:43;15.00;;;9.80;;
21786;SDS011;11055;50.870;4.316;2023-03-01T09:01:13;12.55;;;9.65;;
21786;SDS011;11055;50.870;4.316;2023-03-01T09:03:40;14.15;;;9.35;;
21786;SDS011;11055;50.870;4.316;2023-03-01T09:06:07;13.65;;;9.10;;
21786;SDS011;11055;50.870;4.316;2023-03-01T09:08:37;15.40;;;9.27;;
21786;SDS011;11055;50.870;4.316;2023-03-01T09:11:04;12.57;;;10.10;;
21786;SDS011;11055;50.870;4.316;2023-03-01T09:13:31;12.80;;;9.63;;
21786;SDS011;11055;50.870;4.316;2023-03-01T09:15:57;13.25;;;9.45;;
21786;SDS011;11055;50.870;4.316;2023-03-01T09:18:24;14.55;;;9.85;;
21786;SDS011;11055;50.870;4.316;2023-03-01T09:20:50;13.32;;;9.65;;
21786;SDS011;11055;50.870;4.316;2023-03-01T09:23:15;13.13;;;9.45;;
21786;SDS011;11055;50.870;4.316;2023-03-01T09:25:41;13.23;;;9.23;;
21786;SDS011;11055;50.870;4.316;2023-03-01T09:28:06;14.35;;;10.55;;
21786;SDS011;11055;50.870;4.316;2023-03-01T09:30:32;14.45;;;10.27;;
21786;SDS011;11055;50.870;4.316;2023-03-01T09:32:59;13.45;;;10.27;;
21786;SDS011;11055;50.870;4.316;2023-03-01T09:35:25;13.35;;;10.27;;
21786;SDS011;11055;50.870;4.316;2023-03-01T09:37:51;14.13;;;10.63;;
21786;SDS011;11055;50.870;4.316;2023-03-01T09:40:21;12.38;;;9.82;;
21786;SDS011;11055;50.870;4.316;2023-03-01T09:43:01;13.02;;;10.45;;
21786;SDS011;11055;50.870;4.316;2023-03-01T09:45:33;14.50;;;9.63;;
21786;SDS011;11055;50.870;4.316;2023-03-01T09:48:01;16.10;;;10.20;;
21786;SDS011;11055;50.870;4.316;2023-03-01T09:50:32;14.15;;;10.18;;
21786;SDS011;11055;50.870;4.316;2023-03-01T09:53:02;16.55;;;11.13;;
21786;SDS011;11055;50.870;4.316;2023-03-01T09:55:37;11.73;;;10.43;;
21786;SDS011;11055;50.870;4.316;2023-03-01T09:58:31;14.77;;;10.45;;
21786;SDS011;11055;50.870;4.316;2023-03-01T10:01:18;15.27;;;10.65;;
21786;SDS011;11055;50.870;4.316;2023-03-01T10:06:58;13.20;;;10.80;;
21786;SDS011;11055;50.870;4.316;2023-03-01T10:09:34;14.32;;;10.40;;
21786;SDS011;11055;50.870;4.316;2023-03-01T10:12:04;15.02;;;10.82;;
21786;SDS011;11055;50.870;4.316;2023-03-01T10:19:46;15.02;;;9.63;;
21786;SDS011;11055;50.870;4.316;2023-03-01T10:24:46;13.80;;;10.40;;
21786;SDS011;11055;50.870;4.316;2023-03-01T10:29:59;11.88;;;9.50;;
21786;SDS011;11055;50.870;4.316;2023-03-01T10:32:41;12.45;;;9.75;;
21786;SDS011;11055;50.870;4.316;2023-03-01T10:38:06;12.18;;;9.55;;
21786;SDS011;11055;50.870;4.316;2023-03-01T10:40:35;13.23;;;10.18;;
21786;SDS011;11055;50.870;4.316;2023-03-01T10:43:02;13.27;;;10.10;;
21786;SDS011;11055;50.870;4.316;2023-03-01T10:45:37;12.20;;;9.43;;
21786;SDS011;11055;50.870;4.316;2023-03-01T10:50:29;15.82;;;9.40;;
21786;SDS011;11055;50.870;4.316;2023-03-01T10:53:00;11.68;;;10.07;;
21786;SDS011;11055;50.870;4.316;2023-03-01T10:55:30;14.25;;;9.90;;
21786;SDS011;11055;50.870;4.316;2023-03-01T11:00:47;12.57;;;9.05;;
21786;SDS011;11055;50.870;4.316;2023-03-01T11:03:27;11.20;;;8.88;;
21786;SDS011;11055;50.870;4.316;2023-03-01T11:06:05;14.43;;;9.65;;
21786;SDS011;11055;50.870;4.316;2023-03-01T11:08:41;13.50;;;9.23;;
21786;SDS011;11055;50.870;4.316;2023-03-01T11:11:19;11.63;;;8.90;;
21786;SDS011;11055;50.870;4.316;2023-03-01T11:14:00;14.25;;;9.43;;
21786;SDS011;11055;50.870;4.316;2023-03-01T11:19:03;11.18;;;8.20;;
21786;SDS011;11055;50.870;4.316;2023-03-01T11:21:40;11.82;;;9.25;;
21786;SDS011;11055;50.870;4.316;2023-03-01T11:24:15;11.88;;;8.88;;
21786;SDS011;11055;50.870;4.316;2023-03-01T11:26:43;13.27;;;8.57;;
21786;SDS011;11055;50.870;4.316;2023-03-01T11:32:04;11.05;;;8.63;;
21786;SDS011;11055;50.870;4.316;2023-03-01T11:34:39;12.32;;;8.40;;
21786;SDS011;11055;50.870;4.316;2023-03-01T11:37:50;12.57;;;8.75;;
21786;SDS011;11055;50.870;4.316;2023-03-01T11:40:03;12.00;;;9.38;;
21786;SDS011;11055;50.870;4.316;2023-03-01T11:42:46;12.10;;;9.07;;
21786;SDS011;11055;50.870;4.316;2023-03-01T11:45:33;11.63;;;8.90;;
21786;SDS011;11055;50.870;4.316;2023-03-01T11:48:17;12.20;;;9.25;;
21786;SDS011;11055;50.870;4.316;2023-03-01T11:51:05;10.88;;;8.80;;
21786;SDS011;11055;50.870;4.316;2023-03-01T11:54:01;11.27;;;8.60;;
21786;SDS011;11055;50.870;4.316;2023-03-01T11:56:31;12.13;;;8.30;;
21786;SDS011;11055;50.870;4.316;2023-03-01T12:07:00;12.93;;;8.77;;
21786;SDS011;11055;50.870;4.316;2023-03-01T12:14:28;11.10;;;8.40;;
21786;SDS011;11055;50.870;4.316;2023-03-01T12:22:09;11.07;;;7.63;;
21786;SDS011;11055;50.870;4.316;2023-03-01T12:25:16;10.68;;;8.65;;
21786;SDS011;11055;50.870;4.316;2023-03-01T12:28:11;11.65;;;8.30;;
21786;SDS011;11055;50.870;4.316;2023-03-01T12:39:13;11.77;;;8.15;;
21786;SDS011;11055;50.870;4.316;2023-03-01T12:50:19;8.20;;;7.50;;
21786;SDS011;11055;50.870;4.316;2023-03-01T12:55:22;11.83;;;8.27;;
21786;SDS011;11055;50.870;4.316;2023-03-01T13:00:47;8.73;;;7.93;;
21786;SDS011;11055;50.870;4.316;2023-03-01T13:09:02;14.18;;;7.93;;
21786;SDS011;11055;50.870;4.316;2023-03-01T13:11:41;10.95;;;7.95;;
21786;SDS011;11055;50.870;4.316;2023-03-01T13:16:45;9.60;;;7.68;;
21786;SDS011;11055;50.870;4.316;2023-03-01T13:19:24;8.13;;;7.32;;
21786;SDS011;11055;50.870;4.316;2023-03-01T13:21:52;8.13;;;7.43;;
21786;SDS011;11055;50.870;4.316;2023-03-01T13:25:02;10.02;;;8.10;;
21786;SDS011;11055;50.870;4.316;2023-03-01T13:29:44;9.40;;;8.50;;
21786;SDS011;11055;50.870;4.316;2023-03-01T13:34:46;8.50;;;7.75;;
21786;SDS011;11055;50.870;4.316;2023-03-01T13:37:23;8.85;;;7.95;;
21786;SDS011;11055;50.870;4.316;2023-03-01T13:39:51;9.05;;;8.20;;
21786;SDS011;11055;50.870;4.316;2023-03-01T13:42:36;12.20;;;8.05;;
21786;SDS011;11055;50.870;4.316;2023-03-01T13:45:32;9.90;;;7.97;;
21786;SDS011;11055;50.870;4.316;2023-03-01T13:48:02;8.98;;;7.95;;
21786;SDS011;11055;50.870;4.316;2023-03-01T13:50:35;9.35;;;8.02;;
21786;SDS011;11055;50.870;4.316;2023-03-01T13:53:10;9.32;;;8.18;;
21786;SDS011;11055;50.870;4.316;2023-03-01T13:55:44;9.75;;;7.95;;
21786;SDS011;11055;50.870;4.316;2023-03-01T13:58:59;8.32;;;7.60;;
21786;SDS011;11055;50.870;4.316;2023-03-01T14:01:33;8.70;;;7.90;;
21786;SDS011;11055;50.870;4.316;2023-03-01T14:04:01;9.25;;;8.30;;
21786;SDS011;11055;50.870;4.316;2023-03-01T14:06:29;8.85;;;7.95;;
21786;SDS011;11055;50.870;4.316;2023-03-01T14:20:20;8.65;;;7.85;;
21786;SDS011;11055;50.870;4.316;2023-03-01T14:22:48;9.27;;;8.20;;
21786;SDS011;11055;50.870;4.316;2023-03-01T14:25:19;8.70;;;7.90;;
21786;SDS011;11055;50.870;4.316;2023-03-01T14:27:55;8.38;;;7.57;;
21786;SDS011;11055;50.870;4.316;2023-03-01T14:33:00;9.63;;;8.63;;
21786;SDS011;11055;50.870;4.316;2023-03-01T14:35:29;8.95;;;8.05;;
21786;SDS011;11055;50.870;4.316;2023-03-01T14:37:56;9.13;;;8.23;;
21786;SDS011;11055;50.870;4.316;2023-03-01T14:40:33;9.50;;;8.00;;
21786;SDS011;11055;50.870;4.316;2023-03-01T14:43:01;10.02;;;8.23;;
21786;SDS011;11055;50.870;4.316;2023-03-01T14:45:42;9.65;;;8.55;;
21786;SDS011;11055;50.870;4.316;2023-03-01T14:48:13;9.07;;;8.02;;
21786;SDS011;11055;50.870;4.316;2023-03-01T14:50:41;10.30;;;8.50;;
21786;SDS011;11055;50.870;4.316;2023-03-01T14:53:13;9.02;;;8.02;;
21786;SDS011;11055;50.870;4.316;2023-03-01T14:55:45;11.55;;;8.35;;
21786;SDS011;11055;50.870;4.316;2023-03-01T14:58:25;10.30;;;8.43;;
21786;SDS011;11055;50.870;4.316;2023-03-01T15:03:26;10.93;;;8.18;;
21786;SDS011;11055;50.870;4.316;2023-03-01T15:05:53;9.80;;;8.55;;
21786;SDS011;11055;50.870;4.316;2023-03-01T15:08:20;11.07;;;8.95;;
21786;SDS011;11055;50.870;4.316;2023-03-01T15:13:44;11.68;;;8.68;;
21786;SDS011;11055;50.870;4.316;2023-03-01T15:16:13;10.85;;;8.80;;
21786;SDS011;11055;50.870;4.316;2023-03-01T15:18:45;10.35;;;8.20;;
21786;SDS011;11055;50.870;4.316;2023-03-01T15:21:24;10.20;;;8.25;;
21786;SDS011;11055;50.870;4.316;2023-03-01T15:26:44;10.77;;;8.52;;
21786;SDS011;11055;50.870;4.316;2023-03-01T15:29:23;10.00;;;8.32;;
21786;SDS011;11055;50.870;4.316;2023-03-01T15:36:55;12.82;;;9.55;;
21786;SDS011;11055;50.870;4.316;2023-03-01T15:42:02;10.35;;;8.57;;
21786;SDS011;11055;50.870;4.316;2023-03-01T15:44:33;9.60;;;8.13;;
21786;SDS011;11055;50.870;4.316;2023-03-01T15:47:01;14.68;;;9.32;;
21786;SDS011;11055;50.870;4.316;2023-03-01T15:49:46;13.13;;;8.70;;
21786;SDS011;11055;50.870;4.316;2023-03-01T15:52:23;12.23;;;8.98;;
21786;SDS011;11055;50.870;4.316;2023-03-01T15:54:56;10.05;;;8.07;;
21786;SDS011;11055;50.870;4.316;2023-03-01T15:57:30;8.95;;;8.05;;
21786;SDS011;11055;50.870;4.316;2023-03-01T15:59:55;11.75;;;8.18;;
21786;SDS011;11055;50.870;4.316;2023-03-01T16:02:22;9.63;;;8.63;;
21786;SDS011;11055;50.870;4.316;2023-03-01T16:04:49;12.05;;;9.13;;
21786;SDS011;11055;50.870;4.316;2023-03-01T16:07:15;12.93;;;8.55;;
21786;SDS011;11055;50.870;4.316;2023-03-01T16:09:41;12.13;;;8.80;;
21786;SDS011;11055;50.870;4.316;2023-03-01T16:12:11;10.35;;;8.98;;
21786;SDS011;11055;50.870;4.316;2023-03-01T16:14:39;13.18;;;8.35;;
21786;SDS011;11055;50.870;4.316;2023-03-01T16:17:05;11.00;;;8.93;;
21786;SDS011;11055;50.870;4.316;2023-03-01T16:19:32;9.57;;;8.20;;
21786;SDS011;11055;50.870;4.316;2023-03-01T16:21:58;12.00;;;8.20;;
21786;SDS011;11055;50.870;4.316;2023-03-01T16:24:24;11.95;;;8.15;;
21786;SDS011;11055;50.870;4.316;2023-03-01T16:26:50;9.95;;;7.78;;
21786;SDS011;11055;50.870;4.316;2023-03-01T16:29:16;11.27;;;8.65;;
21786;SDS011;11055;50.870;4.316;2023-03-01T16:31:42;11.60;;;8.07;;
21786;SDS011;11055;50.870;4.316;2023-03-01T16:34:07;10.95;;;8.20;;
21786;SDS011;11055;50.870;4.316;2023-03-01T16:36:33;9.23;;;7.95;;
21786;SDS011;11055;50.870;4.316;2023-03-01T16:38:59;10.15;;;7.72;;
21786;SDS011;11055;50.870;4.316;2023-03-01T16:41:25;10.40;;;8.27;;
21786;SDS011;11055;50.870;4.316;2023-03-01T16:43:52;10.80;;;7.88;;
21786;SDS011;11055;50.870;4.316;2023-03-01T16:46:19;9.75;;;8.32;;
21786;SDS011;11055;50.870;4.316;2023-03-01T16:48:47;10.05;;;7.38;;
21786;SDS011;11055;50.870;4.316;2023-03-01T16:51:13;10.23;;;8.13;;
21786;SDS011;11055;50.870;4.316;2023-03-01T16:53:39;11.65;;;7.80;;
21786;SDS011;11055;50.870;4.316;2023-03-01T16:56:06;9.07;;;7.38;;
21786;SDS011;11055;50.870;4.316;2023-03-01T16:58:34;10.15;;;7.93;;
21786;SDS011;11055;50.870;4.316;2023-03-01T17:03:45;9.40;;;7.70;;